createdAt,value
2023-03-08T00:02:08.275Z,15.27
2023-03-08T00:04:35.156Z,13.80
2023-03-08T00:07:01.973Z,12.20
2023-03-08T00:09:28.856Z,13.77
2023-03-08T00:11:55.598Z,18.03
2023-03-08T00:14:22.676Z,13.27
2023-03-08T00:16:51.964Z,14.23
2023-03-08T00:19:18.665Z,13.63
2023-03-08T00:21:45.376Z,11.37
2023-03-08T00:24:12.954Z,13.70
2023-03-08T00:26:39.728Z,10.63
2023-03-08T00:29:06.628Z,15.17
2023-03-08T00:31:33.574Z,12.07
2023-03-08T00:34:00.274Z,12.90
2023-03-08T00:36:27.447Z,13.43
2023-03-08T00:38:56.605Z,13.80
2023-03-08T00:41:23.648Z,11.60
2023-03-08T00:43:50.786Z,13.27
2023-03-08T00:46:17.621Z,13.53
2023-03-08T00:48:44.348Z,11.70
2023-03-08T00:51:17.028Z,11.77
2023-03-08T00:53:44.394Z,12.97
2023-03-08T00:56:11.521Z,14.77
2023-03-08T00:58:39.753Z,14.43
2023-03-08T01:01:08.560Z,14.10
2023-03-08T01:03:35.687Z,15.93
2023-03-08T01:06:08.140Z,12.80
2023-03-08T01:08:35.494Z,14.13
2023-03-08T01:11:03.042Z,14.43
2023-03-08T01:13:32.467Z,12.80
2023-03-08T01:15:59.669Z,14.37
2023-03-08T01:18:27.480Z,13.43
2023-03-08T01:21:02.594Z,13.07
2023-03-08T01:23:29.684Z,13.97
2023-03-08T01:26:05.818Z,13.47
2023-03-08T01:28:33.586Z,12.63
2023-03-08T01:31:07.724Z,14.53
2023-03-08T01:33:34.874Z,12.40
2023-03-08T01:36:05.360Z,13.63
2023-03-08T01:38:32.548Z,11.70
2023-03-08T01:41:02.068Z,16.07
2023-03-08T01:43:32.240Z,12.57
2023-03-08T01:46:17.668Z,12.50
2023-03-08T01:48:46.016Z,12.50
2023-03-08T01:51:15.986Z,12.23
2023-03-08T01:53:43.846Z,14.80
2023-03-08T01:56:13.672Z,11.70
2023-03-08T01:58:43.875Z,14.60
2023-03-08T02:01:10.780Z,14.87
2023-03-08T02:03:37.492Z,13.03
2023-03-08T02:06:04.544Z,12.87
2023-03-08T02:08:32.852Z,10.87
2023-03-08T02:11:00.483Z,12.53
2023-03-08T02:13:27.849Z,13.60
2023-03-08T02:15:56.760Z,14.00
2023-03-08T02:18:23.821Z,12.43
2023-03-08T02:20:50.516Z,14.00
2023-03-08T02:23:23.749Z,14.07
2023-03-08T02:25:53.221Z,13.13
2023-03-08T02:28:24.749Z,12.73
2023-03-08T02:30:51.623Z,16.40
2023-03-08T02:33:18.912Z,13.57
2023-03-08T02:35:46.201Z,12.40
2023-03-08T02:38:15.175Z,12.23
2023-03-08T02:40:41.873Z,16.53
2023-03-08T02:43:09.099Z,16.57
2023-03-08T02:45:36.309Z,10.93
2023-03-08T02:48:04.493Z,11.07
2023-03-08T02:50:31.743Z,12.90
2023-03-08T02:52:59.192Z,12.97
2023-03-08T02:55:26.651Z,11.70
2023-03-08T02:57:53.351Z,11.37
2023-03-08T03:00:20.209Z,13.87
2023-03-08T03:02:47.013Z,10.80
2023-03-08T03:05:13.881Z,11.23
2023-03-08T03:07:42.288Z,12.30
2023-03-08T03:10:10.735Z,11.50
2023-03-08T03:12:37.565Z,13.77
2023-03-08T03:15:06.117Z,11.87
2023-03-08T03:17:33.212Z,12.03
2023-03-08T03:19:59.979Z,10.60
2023-03-08T03:22:27.644Z,9.70
2023-03-08T03:24:54.429Z,12.60
2023-03-08T03:27:21.138Z,11.70
2023-03-08T03:29:47.845Z,10.20
2023-03-08T03:32:14.615Z,9.57
2023-03-08T03:34:41.634Z,10.27
2023-03-08T03:37:08.402Z,10.17
2023-03-08T03:39:39.123Z,12.17
2023-03-08T03:42:07.638Z,11.67
2023-03-08T03:44:34.355Z,10.83
2023-03-08T03:47:01.080Z,12.27
2023-03-08T03:49:28.808Z,11.37
2023-03-08T03:51:55.549Z,9.20
2023-03-08T03:54:22.339Z,9.80
2023-03-08T03:56:49.137Z,10.27
2023-03-08T03:59:15.994Z,9.57
2023-03-08T04:01:42.756Z,9.60
2023-03-08T04:04:11.037Z,12.20
2023-03-08T04:06:37.746Z,9.13
2023-03-08T04:09:07.155Z,12.73
2023-03-08T04:11:37.028Z,9.20
2023-03-08T04:14:04.709Z,11.00
2023-03-08T04:16:33.805Z,10.20
2023-03-08T04:19:03.466Z,16.57
2023-03-08T04:21:30.705Z,11.80
2023-03-08T04:24:00.171Z,9.37
2023-03-08T04:26:28.003Z,11.67
2023-03-08T04:28:54.733Z,9.53
2023-03-08T04:31:24.738Z,10.63
2023-03-08T04:33:52.701Z,9.50
2023-03-08T04:36:20.461Z,12.23
2023-03-08T04:38:48.011Z,14.97
2023-03-08T04:41:15.909Z,13.07
2023-03-08T04:43:51.372Z,11.87
2023-03-08T04:46:20.436Z,11.10
2023-03-08T04:48:47.788Z,12.20
2023-03-08T04:51:16.347Z,12.40
2023-03-08T04:53:45.258Z,12.13
2023-03-08T04:56:13.608Z,12.50
2023-03-08T04:58:40.991Z,12.50
2023-03-08T05:01:15.221Z,13.87
2023-03-08T05:03:42.250Z,10.80
2023-03-08T05:06:09.387Z,12.27
2023-03-08T05:08:36.691Z,14.13
2023-03-08T05:11:04.700Z,15.87
2023-03-08T05:13:34.147Z,10.77
2023-03-08T05:16:01.634Z,12.43
2023-03-08T05:18:28.509Z,11.43
2023-03-08T05:21:11.159Z,13.80
2023-03-08T05:23:37.907Z,13.70
2023-03-08T05:26:06.592Z,13.23
2023-03-08T05:28:39.193Z,13.00
2023-03-08T05:31:12.958Z,13.63
2023-03-08T05:33:40.470Z,13.10
2023-03-08T05:36:08.194Z,12.80
2023-03-08T05:38:34.940Z,13.47
2023-03-08T05:41:03.558Z,12.53
2023-03-08T05:43:30.591Z,13.80
2023-03-08T05:46:00.217Z,14.13
2023-03-08T05:48:27.027Z,14.53
2023-03-08T05:50:54.415Z,14.40
2023-03-08T05:53:22.376Z,14.13
2023-03-08T05:55:49.470Z,14.33
2023-03-08T05:58:17.040Z,16.00
2023-03-08T06:00:43.693Z,14.20
2023-03-08T06:03:10.629Z,15.60
2023-03-08T06:05:37.648Z,13.17
2023-03-08T06:08:04.863Z,13.57
2023-03-08T06:10:31.644Z,12.47
2023-03-08T06:12:58.361Z,13.67
2023-03-08T06:15:25.071Z,12.00
2023-03-08T06:17:54.935Z,13.00
2023-03-08T06:20:21.713Z,14.60
2023-03-08T06:22:49.580Z,12.27
2023-03-08T06:25:16.771Z,13.50
2023-03-08T06:27:43.508Z,15.03
2023-03-08T06:30:10.957Z,9.77
2023-03-08T06:32:37.896Z,13.03
2023-03-08T06:35:05.314Z,10.87
2023-03-08T06:37:35.831Z,10.00
2023-03-08T06:40:05.746Z,10.63
2023-03-08T06:42:41.166Z,10.23
2023-03-08T06:45:09.455Z,9.53
2023-03-08T06:47:36.081Z,8.93
2023-03-08T06:50:03.131Z,8.53
2023-03-08T06:52:34.973Z,9.37
2023-03-08T06:55:01.666Z,9.57
2023-03-08T06:57:28.392Z,10.10
2023-03-08T06:59:55.187Z,10.90
2023-03-08T07:02:22.018Z,9.97
2023-03-08T07:04:49.785Z,11.03
2023-03-08T07:07:16.640Z,11.93
2023-03-08T07:09:43.445Z,9.30
2023-03-08T07:12:10.216Z,13.17
2023-03-08T07:14:37.011Z,11.33
2023-03-08T07:17:03.705Z,12.17
2023-03-08T07:19:31.820Z,12.03
2023-03-08T07:21:58.479Z,10.87
2023-03-08T07:24:25.180Z,9.53
2023-03-08T07:26:51.983Z,8.37
2023-03-08T07:29:18.730Z,9.77
2023-03-08T07:31:45.493Z,9.47
2023-03-08T07:34:12.745Z,8.77
2023-03-08T07:36:40.204Z,10.40
2023-03-08T07:39:06.959Z,10.07
2023-03-08T07:41:34.718Z,9.97
2023-03-08T07:44:02.499Z,19.33
2023-03-08T07:46:30.183Z,12.80
2023-03-08T07:48:56.997Z,11.30
2023-03-08T07:51:24.195Z,8.93
2023-03-08T07:53:52.734Z,9.67
2023-03-08T07:56:19.435Z,10.40
2023-03-08T07:58:46.140Z,7.43
2023-03-08T08:01:14.517Z,8.03
2023-03-08T08:03:41.420Z,5.83
2023-03-08T08:06:08.874Z,6.33
2023-03-08T08:08:35.630Z,8.07
2023-03-08T08:11:09.364Z,6.93
2023-03-08T08:13:36.109Z,5.87
2023-03-08T08:16:03.335Z,6.33
2023-03-08T08:18:30.153Z,5.40
2023-03-08T08:21:05.080Z,7.47
2023-03-08T08:23:32.925Z,7.17
2023-03-08T08:25:59.936Z,10.57
2023-03-08T08:28:27.245Z,6.57
2023-03-08T08:31:02.133Z,9.40
2023-03-08T08:33:29.163Z,7.50
2023-03-08T08:35:56.429Z,7.03
2023-03-08T08:38:24.310Z,6.00
2023-03-08T08:40:51.113Z,6.13
2023-03-08T08:43:18.719Z,6.50
2023-03-08T08:45:47.012Z,5.00
2023-03-08T08:48:14.527Z,5.83
2023-03-08T08:50:42.349Z,7.60
2023-03-08T08:53:10.274Z,5.57
2023-03-08T08:55:37.144Z,4.30
2023-03-08T08:58:04.889Z,5.10
2023-03-08T09:00:33.935Z,4.60
2023-03-08T09:03:01.966Z,5.17
2023-03-08T09:05:29.126Z,4.30
2023-03-08T09:08:01.105Z,8.77
2023-03-08T09:10:29.892Z,4.53
2023-03-08T09:12:59.028Z,4.00
2023-03-08T09:15:26.857Z,3.67
2023-03-08T09:17:54.005Z,6.20
2023-03-08T09:20:23.334Z,4.17
2023-03-08T09:22:50.361Z,3.83
2023-03-08T09:25:19.538Z,4.97
2023-03-08T09:27:46.269Z,3.53
2023-03-08T09:30:14.797Z,5.23
2023-03-08T09:32:41.713Z,4.67
2023-03-08T09:35:08.803Z,5.20
2023-03-08T09:37:36.060Z,7.20
2023-03-08T09:40:09.425Z,3.57
2023-03-08T09:42:38.255Z,3.47
2023-03-08T09:45:35.091Z,5.23
2023-03-08T09:48:11.072Z,3.13
2023-03-08T09:50:44.092Z,4.50
2023-03-08T09:53:24.510Z,14.40
2023-03-08T09:56:01.261Z,9.77
2023-03-08T09:58:43.048Z,5.57
2023-03-08T10:01:41.232Z,3.97
2023-03-08T10:04:13.801Z,4.20
2023-03-08T10:07:08.948Z,3.67
2023-03-08T10:09:41.523Z,3.07
2023-03-08T10:12:48.722Z,8.53
2023-03-08T10:15:19.582Z,3.13
2023-03-08T10:18:05.809Z,7.23
2023-03-08T10:20:37.355Z,3.03
2023-03-08T10:23:22.554Z,2.53
2023-03-08T10:25:51.057Z,3.40
2023-03-08T10:28:20.553Z,2.80
2023-03-08T10:30:50.004Z,3.33
2023-03-08T10:33:19.525Z,2.75
2023-03-08T10:35:56.852Z,2.57
2023-03-08T10:38:25.964Z,2.63
2023-03-08T10:41:20.096Z,2.93
2023-03-08T10:43:50.390Z,2.70
2023-03-08T10:46:20.118Z,2.40
2023-03-08T10:48:47.828Z,2.83
2023-03-08T10:51:23.572Z,4.07
2023-03-08T10:53:58.598Z,3.30
2023-03-08T10:56:39.204Z,4.37
2023-03-08T10:59:16.526Z,3.73
2023-03-08T11:01:52.350Z,4.13
2023-03-08T11:04:23.578Z,3.20
2023-03-08T11:06:50.675Z,3.43
2023-03-08T11:09:25.806Z,2.60
2023-03-08T11:11:52.927Z,4.40
2023-03-08T11:14:19.807Z,3.47
2023-03-08T11:17:12.613Z,3.30
2023-03-08T11:19:45.203Z,3.33
2023-03-08T11:22:18.599Z,2.50
2023-03-08T11:25:17.144Z,3.67
2023-03-08T11:27:46.718Z,2.50
2023-03-08T11:30:32.602Z,2.17
2023-03-08T11:33:11.409Z,2.30
2023-03-08T11:36:02.319Z,3.65
2023-03-08T11:38:31.618Z,1.90
2023-03-08T11:41:02.399Z,2.75
2023-03-08T11:43:56.907Z,1.88
2023-03-08T11:46:44.868Z,2.55
2023-03-08T11:49:33.586Z,2.05
2023-03-08T11:52:10.331Z,1.77
2023-03-08T11:54:51.274Z,1.67
2023-03-08T11:57:18.513Z,2.38
2023-03-08T11:59:51.282Z,3.53
2023-03-08T12:02:30.535Z,1.25
2023-03-08T12:05:12.548Z,1.95
2023-03-08T12:07:53.119Z,1.00
2023-03-08T12:10:22.202Z,4.82
2023-03-08T12:13:17.786Z,1.98
2023-03-08T12:15:55.484Z,0.60
2023-03-08T12:18:32.430Z,1.45
2023-03-08T12:21:28.148Z,2.08
2023-03-08T12:24:23.230Z,0.30
2023-03-08T12:26:56.940Z,1.38
2023-03-08T12:29:37.157Z,0.30
2023-03-08T12:32:04.994Z,1.23
2023-03-08T12:34:46.104Z,0.30
2023-03-08T12:37:39.373Z,0.30
2023-03-08T12:40:28.290Z,0.15
2023-03-08T12:43:28.410Z,1.10
2023-03-08T12:46:01.361Z,2.15
2023-03-08T12:48:35.588Z,0.60
2023-03-08T12:51:13.350Z,0.88
2023-03-08T12:53:51.958Z,87.60
2023-03-08T12:56:22.732Z,40.30
2023-03-08T12:58:49.333Z,8.80
2023-03-08T13:01:36.369Z,3.00
2023-03-08T13:04:06.394Z,3.05
2023-03-08T13:06:45.311Z,1.27
2023-03-08T13:09:32.933Z,2.45
2023-03-08T13:12:05.656Z,1.95
2023-03-08T13:14:42.991Z,1.25
2023-03-08T13:17:30.723Z,3.58
2023-03-08T13:20:14.247Z,0.82
2023-03-08T13:23:02.066Z,0.70
2023-03-08T13:25:43.695Z,1.33
2023-03-08T13:28:13.613Z,0.40
2023-03-08T13:30:52.050Z,0.57
2023-03-08T13:33:52.560Z,0.60
2023-03-08T13:36:25.233Z,0.30
2023-03-08T13:39:07.294Z,0.40
2023-03-08T13:41:34.861Z,0.90
2023-03-08T13:44:06.740Z,1.35
2023-03-08T13:46:34.829Z,0.20
2023-03-08T13:49:02.042Z,0.25
2023-03-08T13:51:29.682Z,0.30
2023-03-08T13:53:56.720Z,0.40
2023-03-08T13:56:26.943Z,1.38
2023-03-08T13:58:57.620Z,0.30
2023-03-08T14:01:26.326Z,2.75
2023-03-08T14:03:55.117Z,0.73
2023-03-08T14:06:29.829Z,2.08
2023-03-08T14:09:02.353Z,0.40
2023-03-08T14:11:40.405Z,1.17
2023-03-08T14:14:24.692Z,0.73
2023-03-08T14:16:54.069Z,0.55
2023-03-08T14:19:39.756Z,0.73
2023-03-08T14:22:21.197Z,0.70
2023-03-08T14:24:55.888Z,1.40
2023-03-08T14:27:22.524Z,0.50
2023-03-08T14:29:49.479Z,2.58
2023-03-08T14:32:16.280Z,2.67
2023-03-08T14:34:48.021Z,0.82
2023-03-08T14:37:27.320Z,0.30
2023-03-08T14:39:56.971Z,0.30
2023-03-08T14:43:04.774Z,0.40
2023-03-08T14:45:36.493Z,2.13
2023-03-08T14:48:18.125Z,1.85
2023-03-08T14:50:55.645Z,2.40
2023-03-08T14:53:29.930Z,1.45
2023-03-08T14:56:00.796Z,0.57
2023-03-08T14:58:31.126Z,4.05
2023-03-08T15:01:00.907Z,2.58
2023-03-08T15:03:29.635Z,0.30
2023-03-08T15:05:57.349Z,2.40
2023-03-08T15:08:24.671Z,0.75
2023-03-08T15:10:52.192Z,1.17
2023-03-08T15:13:22.053Z,1.23
2023-03-08T15:15:49.841Z,1.98
2023-03-08T15:18:16.927Z,0.85
2023-03-08T15:20:49.803Z,1.88
2023-03-08T15:23:22.239Z,2.80
2023-03-08T15:25:49.357Z,0.93
2023-03-08T15:28:18.231Z,1.48
2023-03-08T15:30:45.567Z,0.73
2023-03-08T15:33:12.332Z,1.17
2023-03-08T15:35:40.215Z,1.38
2023-03-08T15:38:07.360Z,0.50
2023-03-08T15:40:36.814Z,1.95
2023-03-08T15:43:03.682Z,0.75
2023-03-08T15:45:30.422Z,3.15
2023-03-08T15:48:13.580Z,0.30
2023-03-08T15:50:40.793Z,1.85
2023-03-08T15:53:08.904Z,0.40
2023-03-08T15:55:36.819Z,0.98
2023-03-08T15:58:03.583Z,0.98
2023-03-08T16:00:30.542Z,0.47
2023-03-08T16:02:58.591Z,1.83
2023-03-08T16:05:26.724Z,0.80
2023-03-08T16:07:55.613Z,1.05
2023-03-08T16:10:22.749Z,1.20
2023-03-08T16:12:49.766Z,1.23
2023-03-08T16:15:16.698Z,0.90
2023-03-08T16:17:44.038Z,0.68
2023-03-08T16:20:12.507Z,1.67
2023-03-08T16:22:39.780Z,0.95
2023-03-08T16:25:07.699Z,0.82
2023-03-08T16:27:36.224Z,0.40
2023-03-08T16:30:04.652Z,0.68
2023-03-08T16:32:31.516Z,0.20
2023-03-08T16:34:59.697Z,0.68
2023-03-08T16:37:27.350Z,0.40
2023-03-08T16:40:02.203Z,1.85
2023-03-08T16:42:29.814Z,0.85
2023-03-08T16:44:56.870Z,0.98
2023-03-08T16:47:25.305Z,0.82
2023-03-08T16:49:52.341Z,0.60
2023-03-08T16:52:19.556Z,0.47
2023-03-08T16:54:46.388Z,0.65
2023-03-08T16:57:19.713Z,0.30
2023-03-08T16:59:47.330Z,1.33
2023-03-08T17:02:17.179Z,1.10
2023-03-08T17:04:44.995Z,1.00
2023-03-08T17:07:12.063Z,1.17
2023-03-08T17:09:39.553Z,0.45
2023-03-08T17:12:07.914Z,0.63
2023-03-08T17:14:35.546Z,0.63
2023-03-08T17:17:03.196Z,0.80
2023-03-08T17:19:29.977Z,0.50
2023-03-08T17:21:56.873Z,0.57
2023-03-08T17:24:23.900Z,0.88
2023-03-08T17:26:52.754Z,1.58
2023-03-08T17:29:19.967Z,2.08
2023-03-08T17:31:47.325Z,1.20
2023-03-08T17:34:14.506Z,1.50
2023-03-08T17:36:41.467Z,1.63
2023-03-08T17:39:08.254Z,1.50
2023-03-08T17:41:35.749Z,1.60
2023-03-08T17:44:03.336Z,1.50
2023-03-08T17:46:30.270Z,2.45
2023-03-08T17:48:57.007Z,1.50
2023-03-08T17:51:26.602Z,1.42
2023-03-08T17:53:53.923Z,1.42
2023-03-08T17:56:25.034Z,1.20
2023-03-08T17:58:52.867Z,1.20
2023-03-08T18:01:21.792Z,1.10
2023-03-08T18:03:49.285Z,1.23
2023-03-08T18:06:21.863Z,1.65
2023-03-08T18:08:48.592Z,1.60
2023-03-08T18:11:15.329Z,1.48
2023-03-08T18:13:42.184Z,1.17
2023-03-08T18:16:08.945Z,1.73
2023-03-08T18:18:36.039Z,1.17
2023-03-08T18:21:13.206Z,1.95
2023-03-08T18:23:43.175Z,1.65
2023-03-08T18:26:11.706Z,1.50
2023-03-08T18:28:38.432Z,1.20
2023-03-08T18:31:14.894Z,1.00
2023-03-08T18:33:41.924Z,1.38
2023-03-08T18:36:09.049Z,1.60
2023-03-08T18:38:36.089Z,1.98
2023-03-08T18:41:22.106Z,0.80
2023-03-08T18:43:48.867Z,0.82
2023-03-08T18:46:15.690Z,1.60
2023-03-08T18:48:43.294Z,0.80
2023-03-08T18:51:10.043Z,0.80
2023-03-08T18:53:37.851Z,0.77
2023-03-08T18:56:04.873Z,0.38
2023-03-08T18:58:32.001Z,0.80
2023-03-08T19:01:00.558Z,0.70
2023-03-08T19:03:28.494Z,0.60
2023-03-08T19:05:56.042Z,1.42
2023-03-08T19:08:22.809Z,1.00
2023-03-08T19:10:49.522Z,1.00
2023-03-08T19:13:16.269Z,3.67
2023-03-08T19:15:43.040Z,1.23
2023-03-08T19:18:10.955Z,0.95
2023-03-08T19:20:39.474Z,1.40
2023-03-08T19:23:06.997Z,0.80
2023-03-08T19:25:35.140Z,1.40
2023-03-08T19:28:02.936Z,1.60
2023-03-08T19:30:29.707Z,1.05
2023-03-08T19:32:57.094Z,1.23
2023-03-08T19:35:24.006Z,1.45
2023-03-08T19:37:50.846Z,0.88
2023-03-08T19:40:17.798Z,1.95
2023-03-08T19:42:44.597Z,1.95
2023-03-08T19:45:13.314Z,2.15
2023-03-08T19:47:40.072Z,1.77
2023-03-08T19:50:07.314Z,2.80
2023-03-08T19:52:33.964Z,2.28
2023-03-08T19:55:01.960Z,2.40
2023-03-08T19:57:28.752Z,4.38
2023-03-08T19:59:57.639Z,2.80
2023-03-08T20:02:24.549Z,2.75
2023-03-08T20:04:51.216Z,2.25
2023-03-08T20:07:17.893Z,2.42
2023-03-08T20:09:44.576Z,2.00
2023-03-08T20:12:11.289Z,2.20
2023-03-08T20:14:38.252Z,1.80
2023-03-08T20:17:05.278Z,2.13
2023-03-08T20:19:34.021Z,1.48
2023-03-08T20:22:01.270Z,3.10
2023-03-08T20:24:28.116Z,1.45
2023-03-08T20:26:54.919Z,1.90
2023-03-08T20:29:21.906Z,2.97
2023-03-08T20:31:48.770Z,3.03
2023-03-08T20:34:15.914Z,3.15
2023-03-08T20:36:42.844Z,2.00
2023-03-08T20:39:10.782Z,1.40
2023-03-08T20:41:37.499Z,1.58
2023-03-08T20:44:04.246Z,2.55
2023-03-08T20:46:33.445Z,2.10
2023-03-08T20:49:00.770Z,2.33
2023-03-08T20:51:28.287Z,2.50
2023-03-08T20:53:56.032Z,0.88
2023-03-08T20:56:25.203Z,3.03
2023-03-08T20:58:55.856Z,2.25
2023-03-08T21:01:31.774Z,2.97
2023-03-08T21:03:58.778Z,2.00
2023-03-08T21:06:31.096Z,2.83
2023-03-08T21:08:59.372Z,3.58
2023-03-08T21:11:26.123Z,2.45
2023-03-08T21:13:53.258Z,2.92
2023-03-08T21:16:25.184Z,1.15
2023-03-08T21:18:53.710Z,2.40
2023-03-08T21:21:22.126Z,3.28
2023-03-08T21:23:50.286Z,4.10
2023-03-08T21:26:17.109Z,3.00
2023-03-08T21:28:43.880Z,2.95
2023-03-08T21:31:11.283Z,6.60
2023-03-08T21:33:38.089Z,4.15
2023-03-08T21:36:05.603Z,3.72
2023-03-08T21:38:32.344Z,1.25
2023-03-08T21:40:59.083Z,2.95
2023-03-08T21:43:26.125Z,3.92
2023-03-08T21:45:52.870Z,3.17
2023-03-08T21:48:19.645Z,2.20
2023-03-08T21:50:46.401Z,2.92
2023-03-08T21:53:13.187Z,3.47
2023-03-08T21:55:41.232Z,2.80
2023-03-08T21:58:08.931Z,3.63
2023-03-08T22:00:35.744Z,3.70
2023-03-08T22:03:02.658Z,5.30
2023-03-08T22:05:30.360Z,4.13
2023-03-08T22:07:57.311Z,3.03
2023-03-08T22:10:24.031Z,3.90
2023-03-08T22:12:50.765Z,3.20
2023-03-08T22:15:17.710Z,2.60
2023-03-08T22:17:44.512Z,2.85
2023-03-08T22:20:12.301Z,4.85
2023-03-08T22:22:40.009Z,1.50
2023-03-08T22:25:08.076Z,2.60
2023-03-08T22:27:35.433Z,2.75
2023-03-08T22:30:03.162Z,2.03
2023-03-08T22:32:29.883Z,2.53
2023-03-08T22:34:57.087Z,2.95
2023-03-08T22:37:23.816Z,2.38
2023-03-08T22:39:50.522Z,2.00
2023-03-08T22:42:17.278Z,2.63
2023-03-08T22:44:44.022Z,3.67
2023-03-08T22:47:10.816Z,2.80
2023-03-08T22:49:37.725Z,1.85
2023-03-08T22:52:04.760Z,1.35
2023-03-08T22:54:31.487Z,1.90
2023-03-08T22:56:58.828Z,3.53
2023-03-08T22:59:25.745Z,2.90
2023-03-08T23:01:53.630Z,3.35
2023-03-08T23:04:21.074Z,2.45
2023-03-08T23:06:48.202Z,1.88
2023-03-08T23:09:15.987Z,3.10
2023-03-08T23:11:42.932Z,3.15
2023-03-08T23:14:10.387Z,2.63
2023-03-08T23:16:43.510Z,4.10
2023-03-08T23:19:12.975Z,3.92
2023-03-08T23:21:39.986Z,4.10
2023-03-08T23:24:07.247Z,3.47
2023-03-08T23:26:34.878Z,3.60
2023-03-08T23:29:03.440Z,4.43
2023-03-08T23:31:32.745Z,2.70
2023-03-08T23:34:02.917Z,3.88
2023-03-08T23:36:31.867Z,3.92
2023-03-08T23:39:01.827Z,1.73
2023-03-08T23:41:28.654Z,2.70
2023-03-08T23:43:56.741Z,1.20
2023-03-08T23:46:24.402Z,1.58
2023-03-08T23:48:55.181Z,1.52
2023-03-08T23:51:23.515Z,2.13
2023-03-08T23:53:52.540Z,2.00
2023-03-08T23:56:30.749Z,3.40
2023-03-08T23:59:00.298Z,2.85
